createdAt,value
2023-11-24T00:00:22.601Z,21.08
2023-11-24T00:01:22.648Z,21.08
2023-11-24T00:02:22.587Z,21.10
2023-11-24T00:03:22.638Z,21.06
2023-11-24T00:04:22.606Z,21.10
2023-11-24T00:05:22.542Z,21.08
2023-11-24T00:06:22.539Z,21.08
2023-11-24T00:07:22.524Z,21.06
2023-11-24T00:08:22.555Z,21.06
2023-11-24T00:09:22.744Z,21.08
2023-11-24T00:10:22.515Z,21.07
2023-11-24T00:11:22.490Z,21.04
2023-11-24T00:12:22.488Z,21.06
2023-11-24T00:13:22.458Z,21.04
2023-11-24T00:14:22.463Z,21.06
2023-11-24T00:15:22.462Z,21.04
2023-11-24T00:16:22.774Z,21.07
2023-11-24T00:17:22.426Z,21.01
2023-11-24T00:18:22.710Z,21.03
2023-11-24T00:19:22.406Z,21.03
2023-11-24T00:20:22.413Z,21.03
2023-11-24T00:21:22.453Z,21.03
2023-11-24T00:22:22.400Z,21.03
2023-11-24T00:23:22.372Z,21.03
2023-11-24T00:24:22.496Z,21.01
2023-11-24T00:25:22.359Z,21.04
2023-11-24T00:26:22.492Z,21.03
2023-11-24T00:27:22.345Z,21.03
2023-11-24T00:28:22.330Z,21.03
2023-11-24T00:29:22.319Z,21.03
2023-11-24T00:30:22.380Z,21.00
2023-11-24T00:31:22.282Z,21.03
2023-11-24T00:32:22.276Z,21.01
2023-11-24T00:33:22.521Z,21.01
2023-11-24T00:34:22.355Z,21.01
2023-11-24T00:35:22.269Z,21.00
2023-11-24T00:36:22.382Z,21.00
2023-11-24T00:37:22.235Z,20.99
2023-11-24T00:38:22.233Z,21.00
2023-11-24T00:39:22.399Z,21.00
2023-11-24T00:40:22.225Z,20.99
2023-11-24T00:41:22.205Z,21.01
2023-11-24T00:42:22.262Z,20.99
2023-11-24T00:43:22.202Z,20.99
2023-11-24T00:44:22.172Z,20.97
2023-11-24T00:45:22.183Z,20.99
2023-11-24T00:46:22.179Z,21.00
2023-11-24T00:47:22.143Z,20.97
2023-11-24T00:48:22.185Z,20.96
2023-11-24T00:49:22.125Z,20.97
2023-11-24T00:50:22.134Z,20.99
2023-11-24T00:51:22.228Z,20.97
2023-11-24T00:52:22.110Z,20.96
2023-11-24T00:53:22.112Z,20.96
2023-11-24T00:54:22.107Z,20.94
2023-11-24T00:55:22.072Z,20.96
2023-11-24T00:56:22.063Z,20.96
2023-11-24T00:57:22.119Z,20.96
2023-11-24T00:58:22.096Z,20.96
2023-11-24T00:59:22.092Z,20.94
2023-11-24T01:00:22.082Z,20.96
2023-11-24T01:01:22.028Z,20.96
2023-11-24T01:02:22.076Z,20.97
2023-11-24T01:03:22.037Z,20.94
2023-11-24T01:04:22.099Z,20.93
2023-11-24T01:05:21.985Z,20.94
2023-11-24T01:06:22.041Z,20.93
2023-11-24T01:07:21.966Z,20.93
2023-11-24T01:08:21.973Z,20.96
2023-11-24T01:09:22.050Z,20.93
2023-11-24T01:10:21.951Z,20.90
2023-11-24T01:11:21.935Z,20.91
2023-11-24T01:12:21.948Z,20.93
2023-11-24T01:13:21.930Z,20.93
2023-11-24T01:14:21.912Z,20.91
2023-11-24T01:15:21.940Z,20.93
2023-11-24T01:16:21.892Z,20.91
2023-11-24T01:17:22.002Z,20.91
2023-11-24T01:18:22.005Z,20.94
2023-11-24T01:19:21.873Z,20.90
2023-11-24T01:20:21.898Z,20.91
2023-11-24T01:21:22.815Z,20.93
2023-11-24T01:22:21.861Z,20.91
2023-11-24T01:23:21.836Z,20.91
2023-11-24T01:24:21.863Z,20.91
2023-11-24T01:25:21.815Z,20.89
2023-11-24T01:26:21.814Z,20.91
2023-11-24T01:27:21.883Z,20.89
2023-11-24T01:28:21.810Z,20.90
2023-11-24T01:29:21.792Z,20.89
2023-11-24T01:30:21.977Z,20.90
2023-11-24T01:31:21.765Z,20.89
2023-11-24T01:32:21.762Z,20.90
2023-11-24T01:33:21.831Z,20.86
2023-11-24T01:34:21.838Z,20.89
2023-11-24T01:35:21.757Z,20.86
2023-11-24T01:36:21.878Z,20.89
2023-11-24T01:37:21.771Z,20.87
2023-11-24T01:38:21.731Z,20.86
2023-11-24T01:39:21.901Z,20.87
2023-11-24T01:40:21.696Z,20.86
2023-11-24T01:41:21.787Z,20.86
2023-11-24T01:42:21.736Z,20.86
2023-11-24T01:43:21.800Z,20.83
2023-11-24T01:44:21.686Z,20.86
2023-11-24T01:45:21.784Z,20.86
2023-11-24T01:46:21.835Z,20.86
2023-11-24T01:47:21.714Z,20.87
2023-11-24T01:48:21.765Z,20.86
2023-11-24T01:49:21.683Z,20.83
2023-11-24T01:50:21.677Z,20.84
2023-11-24T01:51:21.741Z,20.84
2023-11-24T01:52:21.681Z,20.83
2023-11-24T01:53:21.695Z,20.83
2023-11-24T01:54:21.764Z,20.83
2023-11-24T01:55:21.743Z,20.84
2023-11-24T01:56:21.665Z,20.83
2023-11-24T01:57:21.732Z,20.84
2023-11-24T01:58:21.535Z,20.82
2023-11-24T01:59:21.528Z,20.82
2023-11-24T02:00:21.595Z,20.80
2023-11-24T02:01:21.501Z,20.82
2023-11-24T02:02:21.609Z,20.82
2023-11-24T02:03:21.638Z,20.83
2023-11-24T02:04:21.516Z,20.82
2023-11-24T02:05:21.495Z,20.83
2023-11-24T02:06:21.475Z,20.82
2023-11-24T02:07:21.451Z,20.82
2023-11-24T02:08:21.457Z,20.82
2023-11-24T02:09:21.446Z,20.82
2023-11-24T02:10:21.458Z,20.79
2023-11-24T02:11:21.414Z,20.80
2023-11-24T02:12:21.418Z,20.79
2023-11-24T02:13:21.414Z,20.79
2023-11-24T02:14:21.398Z,20.79
2023-11-24T02:15:21.417Z,20.80
2023-11-24T02:16:21.421Z,20.82
2023-11-24T02:17:21.374Z,20.80
2023-11-24T02:18:21.361Z,20.79
2023-11-24T02:19:21.354Z,20.79
2023-11-24T02:20:21.357Z,20.82
2023-11-24T02:21:21.375Z,20.79
2023-11-24T02:22:21.378Z,20.80
2023-11-24T02:23:21.320Z,20.78
2023-11-24T02:24:21.314Z,20.79
2023-11-24T02:25:21.299Z,20.80
2023-11-24T02:26:21.316Z,20.78
2023-11-24T02:27:21.281Z,20.78
2023-11-24T02:28:21.286Z,20.78
2023-11-24T02:29:21.261Z,20.76
2023-11-24T02:30:21.316Z,20.75
2023-11-24T02:31:21.361Z,20.78
2023-11-24T02:32:21.246Z,20.76
2023-11-24T02:33:21.310Z,20.78
2023-11-24T02:34:21.302Z,20.79
2023-11-24T02:35:21.265Z,20.78
2023-11-24T02:36:21.229Z,20.78
2023-11-24T02:37:21.196Z,20.76
2023-11-24T02:38:21.187Z,20.78
2023-11-24T02:39:21.204Z,20.78
2023-11-24T02:40:21.188Z,20.79
2023-11-24T02:41:21.183Z,20.78
2023-11-24T02:42:21.175Z,20.80
2023-11-24T02:43:21.279Z,20.80
2023-11-24T02:44:21.152Z,20.83
2023-11-24T02:45:21.123Z,20.83
2023-11-24T02:46:21.134Z,20.86
2023-11-24T02:47:21.105Z,20.86
2023-11-24T02:48:21.144Z,20.86
2023-11-24T02:49:21.107Z,20.89
2023-11-24T02:50:21.092Z,20.90
2023-11-24T02:51:21.091Z,20.93
2023-11-24T02:52:21.072Z,20.94
2023-11-24T02:53:21.046Z,20.99
2023-11-24T02:54:21.048Z,21.00
2023-11-24T02:55:21.035Z,21.01
2023-11-24T02:56:21.050Z,21.04
2023-11-24T02:57:21.014Z,21.06
2023-11-24T02:58:21.012Z,21.07
2023-11-24T02:59:21.015Z,21.08
2023-11-24T03:00:20.994Z,21.11
2023-11-24T03:01:42.047Z,21.13
2023-11-24T03:02:21.050Z,21.15
2023-11-24T03:03:20.955Z,21.15
2023-11-24T03:04:21.042Z,21.18
2023-11-24T03:05:20.953Z,21.20
2023-11-24T03:06:20.945Z,21.21
2023-11-24T03:07:20.948Z,21.23
2023-11-24T03:08:20.935Z,21.24
2023-11-24T03:09:20.919Z,21.30
2023-11-24T03:10:20.917Z,21.30
2023-11-24T03:11:20.907Z,21.33
2023-11-24T03:12:20.893Z,21.33
2023-11-24T03:13:21.808Z,21.35
2023-11-24T03:14:20.866Z,21.34
2023-11-24T03:15:20.861Z,21.38
2023-11-24T03:16:20.869Z,21.37
2023-11-24T03:17:20.842Z,21.38
2023-11-24T03:18:20.856Z,21.41
2023-11-24T03:19:20.821Z,21.44
2023-11-24T03:20:20.830Z,21.45
2023-11-24T03:21:20.801Z,21.45
2023-11-24T03:22:20.808Z,21.46
2023-11-24T03:23:20.779Z,21.48
2023-11-24T03:24:20.789Z,21.49
2023-11-24T03:25:20.911Z,21.52
2023-11-24T03:26:20.772Z,21.52
2023-11-24T03:27:20.739Z,21.53
2023-11-24T03:28:20.748Z,21.53
2023-11-24T03:29:20.716Z,21.53
2023-11-24T03:30:20.730Z,21.59
2023-11-24T03:31:20.719Z,21.61
2023-11-24T03:32:20.707Z,21.59
2023-11-24T03:33:20.732Z,21.61
2023-11-24T03:34:20.793Z,21.63
2023-11-24T03:35:20.660Z,21.63
2023-11-24T03:36:20.671Z,21.63
2023-11-24T03:37:25.688Z,21.65
2023-11-24T03:38:20.645Z,21.66
2023-11-24T03:39:20.645Z,21.68
2023-11-24T03:40:20.629Z,21.69
2023-11-24T03:41:20.627Z,21.68
2023-11-24T03:42:20.610Z,21.69
2023-11-24T03:43:20.646Z,21.73
2023-11-24T03:44:20.591Z,21.73
2023-11-24T03:45:20.590Z,21.75
2023-11-24T03:46:20.610Z,21.75
2023-11-24T03:47:20.568Z,21.75
2023-11-24T03:48:20.576Z,21.78
2023-11-24T03:49:20.544Z,21.76
2023-11-24T03:50:20.550Z,21.78
2023-11-24T03:51:20.528Z,21.78
2023-11-24T03:52:20.531Z,21.80
2023-11-24T03:53:20.502Z,21.82
2023-11-24T03:54:20.512Z,21.80
2023-11-24T03:55:20.489Z,21.85
2023-11-24T03:56:20.483Z,21.82
2023-11-24T03:57:20.473Z,21.85
2023-11-24T03:58:20.471Z,21.87
2023-11-24T03:59:20.477Z,21.87
2023-11-24T04:00:20.458Z,21.85
2023-11-24T04:01:20.515Z,21.89
2023-11-24T04:02:20.467Z,21.87
2023-11-24T04:03:20.461Z,21.87
2023-11-24T04:04:20.422Z,21.89
2023-11-24T04:05:20.414Z,21.89
2023-11-24T04:06:20.381Z,21.90
2023-11-24T04:07:20.386Z,21.92
2023-11-24T04:08:20.367Z,21.93
2023-11-24T04:09:20.374Z,21.95
2023-11-24T04:10:20.344Z,21.96
2023-11-24T04:11:20.356Z,21.93
2023-11-24T04:12:20.356Z,21.96
2023-11-24T04:13:20.332Z,21.96
2023-11-24T04:14:20.335Z,21.96
2023-11-24T04:15:20.310Z,21.99
2023-11-24T04:16:20.920Z,21.99
2023-11-24T04:17:20.310Z,21.97
2023-11-24T04:18:20.315Z,21.97
2023-11-24T04:19:20.288Z,22.00
2023-11-24T04:20:20.266Z,22.01
2023-11-24T04:21:20.268Z,22.00
2023-11-24T04:22:20.252Z,22.03
2023-11-24T04:23:20.264Z,22.01
2023-11-24T04:24:20.237Z,22.01
2023-11-24T04:25:20.217Z,22.01
2023-11-24T04:26:20.205Z,22.04
2023-11-24T04:27:20.210Z,22.03
2023-11-24T04:28:20.198Z,22.01
2023-11-24T04:29:20.176Z,22.04
2023-11-24T04:30:20.171Z,22.04
2023-11-24T04:31:20.167Z,22.06
2023-11-24T04:32:20.149Z,22.07
2023-11-24T04:33:20.159Z,22.04
2023-11-24T04:34:20.219Z,22.07
2023-11-24T04:35:20.141Z,22.08
2023-11-24T04:36:20.123Z,22.07
2023-11-24T04:37:20.118Z,22.06
2023-11-24T04:38:20.086Z,22.07
2023-11-24T04:39:20.102Z,22.08
2023-11-24T04:40:20.077Z,22.10
2023-11-24T04:41:20.079Z,22.08
2023-11-24T04:42:20.054Z,22.10
2023-11-24T04:43:20.084Z,22.10
2023-11-24T04:44:20.031Z,22.11
2023-11-24T04:45:20.043Z,22.08
2023-11-24T04:46:20.101Z,22.11
2023-11-24T04:47:20.017Z,22.14
2023-11-24T04:48:20.007Z,22.13
2023-11-24T04:49:20.007Z,22.13
2023-11-24T04:50:20.012Z,22.11
2023-11-24T04:51:19.973Z,22.13
2023-11-24T04:52:19.970Z,22.14
2023-11-24T04:53:19.958Z,22.13
2023-11-24T04:54:19.956Z,22.11
2023-11-24T04:55:19.940Z,22.13
2023-11-24T04:56:19.933Z,22.14
2023-11-24T04:57:19.920Z,22.14
2023-11-24T04:58:19.908Z,22.14
2023-11-24T04:59:19.915Z,22.15
2023-11-24T05:00:19.951Z,22.15
2023-11-24T05:01:20.102Z,22.14
2023-11-24T05:02:19.945Z,22.13
2023-11-24T05:03:19.923Z,22.14
2023-11-24T05:04:19.920Z,22.17
2023-11-24T05:05:19.853Z,22.14
2023-11-24T05:06:20.648Z,22.14
2023-11-24T05:07:19.834Z,22.15
2023-11-24T05:08:19.817Z,22.15
2023-11-24T05:09:19.836Z,22.17
2023-11-24T05:10:19.801Z,22.15
2023-11-24T05:11:19.803Z,22.17
2023-11-24T05:12:19.797Z,22.17
2023-11-24T05:13:19.785Z,22.15
2023-11-24T05:14:19.802Z,22.15
2023-11-24T05:15:19.765Z,22.13
2023-11-24T05:16:19.909Z,22.17
2023-11-24T05:17:19.770Z,22.17
2023-11-24T05:18:19.740Z,22.17
2023-11-24T05:19:19.719Z,22.18
2023-11-24T05:20:19.716Z,22.17
2023-11-24T05:21:19.711Z,22.17
2023-11-24T05:22:19.715Z,22.17
2023-11-24T05:23:19.710Z,22.17
2023-11-24T05:24:19.693Z,22.18
2023-11-24T05:25:19.680Z,22.17
2023-11-24T05:26:19.660Z,22.18
2023-11-24T05:27:19.660Z,22.17
2023-11-24T05:28:19.641Z,22.17
2023-11-24T05:29:19.631Z,22.18
2023-11-24T05:30:19.617Z,22.21
2023-11-24T05:31:19.628Z,22.17
2023-11-24T05:32:19.613Z,22.18
2023-11-24T05:33:19.595Z,22.20
2023-11-24T05:34:19.590Z,22.20
2023-11-24T05:35:19.586Z,22.18
2023-11-24T05:36:19.581Z,22.20
2023-11-24T05:37:19.580Z,22.20
2023-11-24T05:38:19.545Z,22.21
2023-11-24T05:39:19.547Z,22.21
2023-11-24T05:40:19.583Z,22.21
2023-11-24T05:41:19.549Z,22.23
2023-11-24T05:42:19.532Z,22.21
2023-11-24T05:43:19.529Z,22.23
2023-11-24T05:44:19.498Z,22.21
2023-11-24T05:45:19.495Z,22.23
2023-11-24T05:46:19.548Z,22.23
2023-11-24T05:47:19.476Z,22.21
2023-11-24T05:48:19.491Z,22.24
2023-11-24T05:49:19.455Z,22.24
2023-11-24T05:50:19.440Z,22.23
2023-11-24T05:51:19.434Z,22.25
2023-11-24T05:52:19.484Z,22.24
2023-11-24T05:53:19.447Z,22.25
2023-11-24T05:54:19.405Z,22.24
2023-11-24T05:55:19.418Z,22.25
2023-11-24T05:56:19.404Z,22.25
2023-11-24T05:57:19.408Z,22.27
2023-11-24T05:58:19.373Z,22.25
2023-11-24T05:59:19.379Z,22.25
2023-11-24T06:00:19.372Z,22.25
2023-11-24T06:01:19.359Z,22.25
2023-11-24T06:02:19.367Z,22.27
2023-11-24T06:03:19.363Z,22.27
2023-11-24T06:04:19.381Z,22.27
2023-11-24T06:05:19.386Z,22.28
2023-11-24T06:06:19.297Z,22.27
2023-11-24T06:07:19.326Z,22.25
2023-11-24T06:08:19.279Z,22.25
2023-11-24T06:09:19.280Z,22.30
2023-11-24T06:10:19.267Z,22.25
2023-11-24T06:11:19.360Z,22.28
2023-11-24T06:12:19.272Z,22.28
2023-11-24T06:13:19.261Z,22.28
2023-11-24T06:14:19.242Z,22.31
2023-11-24T06:15:19.295Z,22.31
2023-11-24T06:16:19.245Z,22.30
2023-11-24T06:17:19.214Z,22.32
2023-11-24T06:18:19.200Z,22.30
2023-11-24T06:19:19.211Z,22.31
2023-11-24T06:20:19.187Z,22.30
2023-11-24T06:21:19.180Z,22.31
2023-11-24T06:22:19.159Z,22.32
2023-11-24T06:23:19.157Z,22.32
2023-11-24T06:24:19.137Z,22.31
2023-11-24T06:25:19.234Z,22.31
2023-11-24T06:26:19.118Z,22.34
2023-11-24T06:27:19.138Z,22.34
2023-11-24T06:28:19.119Z,22.34
2023-11-24T06:29:19.108Z,22.34
2023-11-24T06:30:19.088Z,22.32
2023-11-24T06:31:19.091Z,22.32
2023-11-24T06:32:19.057Z,22.27
2023-11-24T06:33:19.097Z,22.18
2023-11-24T06:34:19.245Z,22.07
2023-11-24T06:35:19.055Z,21.93
2023-11-24T06:36:19.016Z,21.79
2023-11-24T06:37:19.123Z,21.65
2023-11-24T06:38:19.017Z,21.52
2023-11-24T06:39:19.007Z,21.44
2023-11-24T06:40:19.060Z,21.42
2023-11-24T06:41:18.983Z,21.38
2023-11-24T06:42:18.987Z,21.45
2023-11-24T06:43:19.088Z,21.41
2023-11-24T06:44:18.960Z,21.28
2023-11-24T06:45:20.755Z,21.15
2023-11-24T06:46:18.970Z,21.03
2023-11-24T06:47:18.927Z,20.96
2023-11-24T06:48:18.936Z,20.89
2023-11-24T06:49:18.946Z,20.76
2023-11-24T06:50:18.895Z,20.63
2023-11-24T06:51:18.896Z,20.54
2023-11-24T06:52:18.895Z,20.48
2023-11-24T06:53:18.886Z,20.38
2023-11-24T06:54:18.900Z,20.24
2023-11-24T06:55:18.902Z,20.06
2023-11-24T06:56:18.847Z,19.80
2023-11-24T06:57:18.847Z,19.54
2023-11-24T06:58:18.832Z,19.37
2023-11-24T06:59:18.922Z,19.32
2023-11-24T07:00:19.352Z,19.28
2023-11-24T07:01:18.895Z,19.37
2023-11-24T07:02:18.902Z,19.49
2023-11-24T07:03:18.799Z,19.61
2023-11-24T07:04:18.867Z,19.76
2023-11-24T07:05:18.797Z,19.90
2023-11-24T07:06:18.773Z,20.07
2023-11-24T07:07:18.751Z,20.24
2023-11-24T07:08:18.760Z,20.41
2023-11-24T07:09:18.723Z,20.55
2023-11-24T07:10:18.812Z,20.71
2023-11-24T07:11:18.727Z,20.82
2023-11-24T07:12:18.721Z,20.94
2023-11-24T07:13:18.697Z,21.08
2023-11-24T07:14:18.700Z,21.21
2023-11-24T07:15:18.731Z,21.35
2023-11-24T07:16:18.738Z,21.45
2023-11-24T07:17:18.676Z,21.56
2023-11-24T07:18:18.713Z,21.62
2023-11-24T07:19:18.750Z,21.72
2023-11-24T07:20:18.639Z,21.80
2023-11-24T07:21:18.632Z,21.90
2023-11-24T07:22:18.685Z,22.00
2023-11-24T07:23:18.608Z,22.07
2023-11-24T07:24:18.629Z,22.15
2023-11-24T07:25:18.657Z,22.21
2023-11-24T07:26:18.589Z,22.28
2023-11-24T07:27:18.570Z,22.35
2023-11-24T07:28:18.722Z,22.40
2023-11-24T07:29:18.545Z,22.49
2023-11-24T07:30:18.559Z,22.52
2023-11-24T07:31:18.736Z,22.58
2023-11-24T07:32:18.540Z,22.62
2023-11-24T07:33:18.621Z,22.66
2023-11-24T07:34:18.541Z,22.73
2023-11-24T07:35:18.557Z,22.77
2023-11-24T07:36:18.499Z,22.85
2023-11-24T07:37:18.548Z,22.89
2023-11-24T07:38:18.509Z,22.93
2023-11-24T07:39:18.471Z,22.96
2023-11-24T07:40:18.499Z,23.03
2023-11-24T07:41:18.441Z,23.06
2023-11-24T07:42:18.438Z,23.11
2023-11-24T07:43:18.475Z,23.15
2023-11-24T07:44:18.421Z,23.20
2023-11-24T07:45:18.425Z,23.24
2023-11-24T07:46:18.475Z,23.27
2023-11-24T07:47:18.392Z,23.32
2023-11-24T07:48:18.402Z,23.34
2023-11-24T07:49:18.424Z,23.38
2023-11-24T07:50:18.387Z,23.40
2023-11-24T07:51:18.434Z,23.45
2023-11-24T07:52:18.358Z,23.48
2023-11-24T07:53:18.399Z,23.44
2023-11-24T07:54:18.356Z,23.17
2023-11-24T07:55:18.339Z,22.77
2023-11-24T07:56:18.327Z,22.52
2023-11-24T07:57:18.308Z,22.37
2023-11-24T07:58:18.348Z,22.35
2023-11-24T07:59:18.278Z,22.34
2023-11-24T08:00:18.363Z,22.37
2023-11-24T08:01:18.341Z,22.40
2023-11-24T08:02:18.400Z,22.45
2023-11-24T08:03:18.404Z,22.49
2023-11-24T08:04:18.366Z,22.59
2023-11-24T08:05:18.229Z,22.65
2023-11-24T08:06:18.224Z,22.73
2023-11-24T08:07:18.289Z,22.79
2023-11-24T08:08:18.202Z,22.85
2023-11-24T08:09:18.206Z,22.89
2023-11-24T08:10:18.219Z,22.96
2023-11-24T08:11:18.175Z,23.02
2023-11-24T08:12:18.278Z,23.04
2023-11-24T08:13:18.168Z,23.10
2023-11-24T08:14:18.155Z,23.13
2023-11-24T08:15:18.154Z,23.20
2023-11-24T08:16:18.242Z,23.24
2023-11-24T08:17:18.152Z,23.30
2023-11-24T08:18:18.132Z,23.35
2023-11-24T08:19:18.117Z,23.35
2023-11-24T08:20:18.102Z,23.41
2023-11-24T08:21:18.097Z,23.45
2023-11-24T08:22:18.135Z,23.49
2023-11-24T08:23:18.108Z,23.51
2023-11-24T08:24:18.089Z,23.52
2023-11-24T08:25:18.155Z,23.54
2023-11-24T08:26:18.083Z,23.59
2023-11-24T08:27:18.059Z,23.59
2023-11-24T08:28:18.081Z,23.64
2023-11-24T08:29:18.032Z,23.62
2023-11-24T08:30:18.038Z,23.68
2023-11-24T08:31:18.081Z,23.69
2023-11-24T08:32:17.996Z,23.70
2023-11-24T08:33:18.019Z,23.75
2023-11-24T08:34:18.059Z,23.73
2023-11-24T08:35:17.993Z,23.76
2023-11-24T08:36:17.966Z,23.77
2023-11-24T08:37:17.993Z,23.80
2023-11-24T08:38:17.961Z,23.79
2023-11-24T08:39:17.931Z,23.82
2023-11-24T08:40:18.034Z,23.83
2023-11-24T08:41:26.537Z,23.86
2023-11-24T08:42:18.907Z,23.89
2023-11-24T08:43:17.910Z,23.90
2023-11-24T08:44:17.900Z,23.92
2023-11-24T08:45:18.330Z,23.92
2023-11-24T08:46:18.032Z,23.95
2023-11-24T08:47:17.891Z,23.96
2023-11-24T08:48:17.859Z,23.82
2023-11-24T08:49:17.938Z,23.51
2023-11-24T08:50:17.888Z,23.40
2023-11-24T08:51:17.840Z,23.27
2023-11-24T08:52:17.858Z,23.18
2023-11-24T08:53:17.807Z,23.17
2023-11-24T08:54:17.796Z,23.18
2023-11-24T08:55:17.924Z,23.21
2023-11-24T08:56:17.791Z,23.22
2023-11-24T08:57:17.812Z,23.22
2023-11-24T08:58:17.815Z,23.07
2023-11-24T08:59:17.761Z,22.93
2023-11-24T09:00:17.763Z,22.82
2023-11-24T09:01:17.889Z,22.66
2023-11-24T09:02:17.800Z,22.51
2023-11-24T09:03:17.731Z,22.35
2023-11-24T09:04:17.807Z,22.27
2023-11-24T09:05:17.735Z,22.20
2023-11-24T09:06:17.714Z,22.18
2023-11-24T09:07:17.721Z,22.20
2023-11-24T09:08:20.633Z,22.21
2023-11-24T09:09:17.689Z,22.28
2023-11-24T09:10:17.765Z,22.35
2023-11-24T09:11:17.649Z,22.41
2023-11-24T09:12:17.740Z,22.47
2023-11-24T09:13:17.649Z,22.51
2023-11-24T09:14:17.671Z,22.56
2023-11-24T09:15:17.609Z,22.63
2023-11-24T09:16:17.691Z,22.68
2023-11-24T09:17:17.620Z,22.73
2023-11-24T09:18:17.587Z,22.77
2023-11-24T09:19:17.628Z,22.83
2023-11-24T09:20:17.638Z,22.90
2023-11-24T09:21:17.569Z,22.93
2023-11-24T09:22:17.593Z,22.97
2023-11-24T09:23:17.588Z,23.00
2023-11-24T09:24:17.553Z,23.03
2023-11-24T09:25:17.772Z,23.07
2023-11-24T09:26:17.546Z,23.13
2023-11-24T09:27:17.503Z,23.17
2023-11-24T09:28:17.609Z,23.21
2023-11-24T09:29:17.500Z,23.25
2023-11-24T09:30:17.569Z,23.30
2023-11-24T09:31:17.517Z,23.32
2023-11-24T09:32:17.469Z,23.35
2023-11-24T09:33:17.448Z,23.38
2023-11-24T09:34:17.557Z,23.40
2023-11-24T09:35:17.484Z,23.42
2023-11-24T09:36:17.447Z,23.44
2023-11-24T09:37:17.470Z,23.47
2023-11-24T09:38:17.421Z,23.47
2023-11-24T09:39:17.418Z,23.51
2023-11-24T09:40:17.670Z,23.51
2023-11-24T09:41:17.391Z,23.54
2023-11-24T09:42:20.398Z,23.58
2023-11-24T09:43:17.421Z,23.56
2023-11-24T09:44:17.372Z,23.58
2023-11-24T09:45:17.397Z,23.59
2023-11-24T09:46:17.505Z,23.59
2023-11-24T09:47:17.352Z,23.59
2023-11-24T09:48:17.346Z,23.59
2023-11-24T09:49:17.335Z,23.54
2023-11-24T09:50:17.333Z,23.49
2023-11-24T09:51:17.305Z,23.38
2023-11-24T09:52:17.312Z,23.31
2023-11-24T09:53:17.287Z,23.24
2023-11-24T09:54:17.291Z,23.17
2023-11-24T09:55:17.333Z,23.10
2023-11-24T09:56:17.305Z,22.92
2023-11-24T09:57:17.523Z,22.82
2023-11-24T09:58:17.278Z,22.72
2023-11-24T09:59:17.251Z,22.60
2023-11-24T10:00:17.229Z,22.54
2023-11-24T10:01:17.215Z,22.49
2023-11-24T10:02:17.261Z,22.45
2023-11-24T10:03:17.191Z,22.44
2023-11-24T10:04:17.311Z,22.41
2023-11-24T10:05:17.167Z,22.38
2023-11-24T10:06:17.222Z,22.37
2023-11-24T10:07:17.159Z,22.37
2023-11-24T10:08:17.147Z,22.35
2023-11-24T10:09:17.142Z,22.34
2023-11-24T10:10:17.143Z,22.32
2023-11-24T10:11:17.125Z,22.32
2023-11-24T10:12:17.113Z,22.31
2023-11-24T10:13:17.118Z,22.31
2023-11-24T10:14:17.174Z,22.30
2023-11-24T10:15:17.113Z,22.28
2023-11-24T10:16:17.161Z,22.30
2023-11-24T10:17:17.137Z,22.30
2023-11-24T10:18:17.058Z,22.30
2023-11-24T10:19:20.577Z,22.28
2023-11-24T10:20:18.054Z,22.30
2023-11-24T10:21:27.214Z,22.28
2023-11-24T10:22:18.119Z,22.27
2023-11-24T10:23:17.014Z,22.27
2023-11-24T10:24:17.022Z,22.27
2023-11-24T10:25:17.013Z,22.24
2023-11-24T10:26:17.124Z,22.23
2023-11-24T10:27:16.983Z,22.23
2023-11-24T10:28:17.081Z,22.23
2023-11-24T10:29:16.965Z,22.21
2023-11-24T10:30:16.953Z,22.24
2023-11-24T10:31:17.030Z,22.21
2023-11-24T10:32:16.966Z,22.23
2023-11-24T10:33:34.643Z,22.21
2023-11-24T10:34:18.025Z,22.21
2023-11-24T10:35:17.006Z,22.20
2023-11-24T10:36:16.923Z,22.18
2023-11-24T10:37:16.917Z,22.18
2023-11-24T10:38:16.872Z,22.20
2023-11-24T10:39:16.873Z,22.15
2023-11-24T10:40:17.100Z,22.14
2023-11-24T10:41:16.849Z,22.17
2023-11-24T10:42:16.927Z,22.15
2023-11-24T10:43:16.838Z,22.13
2023-11-24T10:44:16.824Z,22.13
2023-11-24T10:45:16.825Z,22.13
2023-11-24T10:46:16.918Z,22.08
2023-11-24T10:47:16.818Z,22.04
2023-11-24T10:48:16.865Z,21.97
2023-11-24T10:49:16.817Z,21.93
2023-11-24T10:50:16.779Z,21.83
2023-11-24T10:51:16.768Z,21.82
2023-11-24T10:52:16.812Z,21.83
2023-11-24T10:53:16.726Z,21.87
2023-11-24T10:54:16.740Z,21.92
2023-11-24T10:55:16.818Z,21.96
2023-11-24T10:56:16.721Z,22.03
2023-11-24T10:57:16.701Z,22.10
2023-11-24T10:58:16.732Z,22.14
2023-11-24T10:59:16.675Z,22.21
2023-11-24T11:00:16.675Z,22.27
2023-11-24T11:01:16.722Z,22.35
2023-11-24T11:02:18.008Z,22.38
2023-11-24T11:03:16.727Z,22.48
2023-11-24T11:04:16.666Z,22.51
2023-11-24T11:05:16.626Z,22.60
2023-11-24T11:06:16.619Z,22.65
2023-11-24T11:07:16.716Z,22.76
2023-11-24T11:08:16.593Z,22.79
2023-11-24T11:09:16.605Z,22.83
2023-11-24T11:10:16.744Z,22.92
2023-11-24T11:11:16.604Z,22.94
2023-11-24T11:12:16.562Z,22.99
2023-11-24T11:13:16.599Z,22.99
2023-11-24T11:14:16.585Z,23.06
2023-11-24T11:15:16.547Z,23.07
2023-11-24T11:16:16.664Z,23.09
2023-11-24T11:17:16.524Z,23.13
2023-11-24T11:18:16.603Z,23.14
2023-11-24T11:19:16.515Z,23.14
2023-11-24T11:20:16.664Z,23.15
2023-11-24T11:21:16.502Z,23.15
2023-11-24T11:22:16.576Z,23.15
2023-11-24T11:23:16.623Z,23.21
2023-11-24T11:24:16.461Z,23.25
2023-11-24T11:25:16.525Z,23.24
2023-11-24T11:26:16.438Z,23.32
2023-11-24T11:27:16.442Z,23.34
2023-11-24T11:28:16.580Z,23.32
2023-11-24T11:29:16.431Z,23.35
2023-11-24T11:30:16.413Z,23.38
2023-11-24T11:31:16.504Z,23.42
2023-11-24T11:32:16.463Z,23.45
2023-11-24T11:33:16.414Z,23.47
2023-11-24T11:34:16.539Z,23.47
2023-11-24T11:35:16.366Z,23.51
2023-11-24T11:36:16.347Z,23.48
2023-11-24T11:37:16.376Z,23.51
2023-11-24T11:38:17.020Z,23.52
2023-11-24T11:39:16.333Z,23.54
2023-11-24T11:40:16.469Z,23.54
2023-11-24T11:41:16.336Z,23.55
2023-11-24T11:42:16.391Z,23.48
2023-11-24T11:43:17.127Z,23.35
2023-11-24T11:44:16.285Z,23.30
2023-11-24T11:45:16.279Z,23.25
2023-11-24T11:46:16.326Z,23.24
2023-11-24T11:47:16.337Z,23.24
2023-11-24T11:48:16.281Z,23.24
2023-11-24T11:49:16.340Z,23.24
2023-11-24T11:50:16.228Z,23.27
2023-11-24T11:51:16.231Z,23.24
2023-11-24T11:52:16.340Z,23.28
2023-11-24T11:53:16.250Z,23.27
2023-11-24T11:54:16.233Z,23.32
2023-11-24T11:55:16.216Z,23.32
2023-11-24T11:56:16.176Z,23.38
2023-11-24T11:57:16.177Z,23.40
2023-11-24T11:58:16.197Z,23.41
2023-11-24T11:59:16.152Z,23.42
2023-11-24T12:00:16.157Z,23.45
2023-11-24T12:01:16.188Z,23.45
2023-11-24T12:02:19.094Z,23.48
2023-11-24T12:03:16.180Z,23.49
2023-11-24T12:04:16.202Z,23.51
2023-11-24T12:05:16.142Z,23.54
2023-11-24T12:06:16.092Z,23.55
2023-11-24T12:07:16.192Z,23.58
2023-11-24T12:08:16.081Z,23.61
2023-11-24T12:09:16.090Z,23.65
2023-11-24T12:10:16.096Z,23.65
2023-11-24T12:11:16.068Z,23.68
2023-11-24T12:12:16.044Z,23.69
2023-11-24T12:13:16.128Z,23.70
2023-11-24T12:14:16.014Z,23.73
2023-11-24T12:15:16.206Z,23.76
2023-11-24T12:16:16.076Z,23.73
2023-11-24T12:17:16.042Z,23.80
2023-11-24T12:18:16.060Z,23.79
2023-11-24T12:19:16.009Z,23.83
2023-11-24T12:20:16.086Z,23.82
2023-11-24T12:21:15.967Z,23.84
2023-11-24T12:22:15.980Z,23.86
2023-11-24T12:23:15.944Z,23.90
2023-11-24T12:24:17.364Z,23.92
2023-11-24T12:25:15.968Z,23.92
2023-11-24T12:26:15.921Z,23.90
2023-11-24T12:27:15.909Z,23.95
2023-11-24T12:28:15.972Z,23.96
2023-11-24T12:29:15.898Z,23.97
2023-11-24T12:30:15.953Z,24.00
2023-11-24T12:31:15.948Z,24.01
2023-11-24T12:32:15.907Z,24.01
2023-11-24T12:33:15.965Z,24.03
2023-11-24T12:34:15.888Z,24.03
2023-11-24T12:35:15.892Z,24.06
2023-11-24T12:36:15.831Z,24.06
2023-11-24T12:37:15.957Z,24.09
2023-11-24T12:38:15.805Z,24.10
2023-11-24T12:39:15.816Z,24.09
2023-11-24T12:40:15.838Z,24.10
2023-11-24T12:41:15.795Z,24.09
2023-11-24T12:42:15.790Z,24.11
2023-11-24T12:43:15.869Z,24.11
2023-11-24T12:44:15.769Z,24.11
2023-11-24T12:45:15.752Z,24.11
2023-11-24T12:46:15.853Z,24.11
2023-11-24T12:47:15.761Z,24.10
2023-11-24T12:48:15.743Z,24.07
2023-11-24T12:49:15.746Z,24.10
2023-11-24T12:50:15.712Z,24.07
2023-11-24T12:51:15.728Z,24.06
2023-11-24T12:52:15.702Z,24.06